sensor_id;sensor_type;location;lat;lon;timestamp;P1;durP1;ratioP1;P2;durP2;ratioP2
15946;SDS011;8072;52.554;7.966;2023-08-24T00:01:17;5.38;;;2.15;;
15946;SDS011;8072;52.554;7.966;2023-08-24T00:03:43;13.85;;;2.65;;
15946;SDS011;8072;52.554;7.966;2023-08-24T00:06:11;4.35;;;2.10;;
15946;SDS011;8072;52.554;7.966;2023-08-24T00:08:37;4.15;;;2.28;;
15946;SDS011;8072;52.554;7.966;2023-08-24T00:11:03;6.10;;;2.30;;
15946;SDS011;8072;52.554;7.966;2023-08-24T00:13:30;3.85;;;2.35;;
15946;SDS011;8072;52.554;7.966;2023-08-24T00:15:56;5.25;;;2.42;;
15946;SDS011;8072;52.554;7.966;2023-08-24T00:18:22;3.90;;;2.47;;
15946;SDS011;8072;52.554;7.966;2023-08-24T00:20:49;5.35;;;2.40;;
15946;SDS011;8072;52.554;7.966;2023-08-24T00:23:16;3.03;;;2.03;;
15946;SDS011;8072;52.554;7.966;2023-08-24T00:25:42;3.92;;;2.15;;
15946;SDS011;8072;52.554;7.966;2023-08-24T00:28:08;3.90;;;2.40;;
15946;SDS011;8072;52.554;7.966;2023-08-24T00:30:34;2.80;;;2.38;;
15946;SDS011;8072;52.554;7.966;2023-08-24T00:33:00;3.95;;;2.25;;
15946;SDS011;8072;52.554;7.966;2023-08-24T00:35:26;2.63;;;1.98;;
15946;SDS011;8072;52.554;7.966;2023-08-24T00:37:52;7.10;;;2.00;;
15946;SDS011;8072;52.554;7.966;2023-08-24T00:40:17;5.32;;;2.70;;
15946;SDS011;8072;52.554;7.966;2023-08-24T00:42:44;3.38;;;2.25;;
15946;SDS011;8072;52.554;7.966;2023-08-24T00:45:11;2.65;;;2.30;;
15946;SDS011;8072;52.554;7.966;2023-08-24T00:47:47;3.85;;;2.15;;
15946;SDS011;8072;52.554;7.966;2023-08-24T00:50:13;4.88;;;2.72;;
15946;SDS011;8072;52.554;7.966;2023-08-24T00:52:41;3.20;;;2.60;;
15946;SDS011;8072;52.554;7.966;2023-08-24T00:55:08;2.90;;;2.00;;
15946;SDS011;8072;52.554;7.966;2023-08-24T00:57:35;2.42;;;2.20;;
15946;SDS011;8072;52.554;7.966;2023-08-24T01:00:04;3.38;;;2.28;;
15946;SDS011;8072;52.554;7.966;2023-08-24T01:02:31;5.28;;;2.30;;
15946;SDS011;8072;52.554;7.966;2023-08-24T01:04:58;4.38;;;2.65;;
15946;SDS011;8072;52.554;7.966;2023-08-24T01:07:24;3.65;;;2.78;;
15946;SDS011;8072;52.554;7.966;2023-08-24T01:09:50;3.33;;;2.58;;
15946;SDS011;8072;52.554;7.966;2023-08-24T01:17:22;3.90;;;2.47;;
15946;SDS011;8072;52.554;7.966;2023-08-24T01:19:49;4.35;;;2.33;;
15946;SDS011;8072;52.554;7.966;2023-08-24T01:22:23;2.92;;;2.63;;
15946;SDS011;8072;52.554;7.966;2023-08-24T01:25:16;3.97;;;2.80;;
15946;SDS011;8072;52.554;7.966;2023-08-24T01:27:49;3.72;;;2.70;;
15946;SDS011;8072;52.554;7.966;2023-08-24T01:30:18;4.82;;;2.80;;
15946;SDS011;8072;52.554;7.966;2023-08-24T01:32:45;4.25;;;2.50;;
15946;SDS011;8072;52.554;7.966;2023-08-24T01:35:11;3.70;;;2.90;;
15946;SDS011;8072;52.554;7.966;2023-08-24T01:37:36;4.57;;;2.97;;
15946;SDS011;8072;52.554;7.966;2023-08-24T01:40:06;2.88;;;2.58;;
15946;SDS011;8072;52.554;7.966;2023-08-24T01:45:16;7.82;;;3.00;;
15946;SDS011;8072;52.554;7.966;2023-08-24T01:47:45;4.13;;;3.15;;
15946;SDS011;8072;52.554;7.966;2023-08-24T01:50:12;4.50;;;3.10;;
15946;SDS011;8072;52.554;7.966;2023-08-24T01:52:38;4.00;;;2.95;;
15946;SDS011;8072;52.554;7.966;2023-08-24T01:55:05;10.50;;;4.25;;
15946;SDS011;8072;52.554;7.966;2023-08-24T01:57:31;4.15;;;3.40;;
15946;SDS011;8072;52.554;7.966;2023-08-24T01:59:57;7.15;;;3.90;;
15946;SDS011;8072;52.554;7.966;2023-08-24T02:02:23;5.53;;;3.70;;
15946;SDS011;8072;52.554;7.966;2023-08-24T02:04:49;4.00;;;3.20;;
15946;SDS011;8072;52.554;7.966;2023-08-24T02:07:16;5.07;;;3.50;;
15946;SDS011;8072;52.554;7.966;2023-08-24T02:09:42;4.47;;;2.83;;
15946;SDS011;8072;52.554;7.966;2023-08-24T02:12:08;5.32;;;3.25;;
15946;SDS011;8072;52.554;7.966;2023-08-24T02:14:33;5.57;;;3.53;;
15946;SDS011;8072;52.554;7.966;2023-08-24T02:16:59;4.63;;;3.33;;
15946;SDS011;8072;52.554;7.966;2023-08-24T02:19:25;4.30;;;2.85;;
15946;SDS011;8072;52.554;7.966;2023-08-24T02:21:51;5.10;;;3.37;;
15946;SDS011;8072;52.554;7.966;2023-08-24T02:24:17;5.93;;;3.65;;
15946;SDS011;8072;52.554;7.966;2023-08-24T02:26:43;4.05;;;3.33;;
15946;SDS011;8072;52.554;7.966;2023-08-24T02:29:09;4.72;;;2.78;;
15946;SDS011;8072;52.554;7.966;2023-08-24T02:31:35;5.00;;;3.33;;
15946;SDS011;8072;52.554;7.966;2023-08-24T02:34:01;5.10;;;3.50;;
15946;SDS011;8072;52.554;7.966;2023-08-24T02:36:27;6.05;;;3.90;;
15946;SDS011;8072;52.554;7.966;2023-08-24T02:38:53;7.03;;;4.20;;
15946;SDS011;8072;52.554;7.966;2023-08-24T02:41:19;8.47;;;3.90;;
15946;SDS011;8072;52.554;7.966;2023-08-24T02:43:45;4.57;;;3.45;;
15946;SDS011;8072;52.554;7.966;2023-08-24T02:46:11;5.00;;;3.70;;
15946;SDS011;8072;52.554;7.966;2023-08-24T02:48:37;4.05;;;3.70;;
15946;SDS011;8072;52.554;7.966;2023-08-24T02:51:03;5.07;;;2.80;;
15946;SDS011;8072;52.554;7.966;2023-08-24T02:53:29;4.30;;;2.83;;
15946;SDS011;8072;52.554;7.966;2023-08-24T02:55:55;4.70;;;3.17;;
15946;SDS011;8072;52.554;7.966;2023-08-24T02:58:22;4.23;;;2.97;;
15946;SDS011;8072;52.554;7.966;2023-08-24T03:00:47;4.17;;;3.30;;
15946;SDS011;8072;52.554;7.966;2023-08-24T03:03:14;5.20;;;3.77;;
15946;SDS011;8072;52.554;7.966;2023-08-24T03:05:40;5.47;;;3.80;;
15946;SDS011;8072;52.554;7.966;2023-08-24T03:08:16;5.87;;;4.67;;
15946;SDS011;8072;52.554;7.966;2023-08-24T03:10:42;4.77;;;3.80;;
15946;SDS011;8072;52.554;7.966;2023-08-24T03:13:08;4.80;;;4.03;;
15946;SDS011;8072;52.554;7.966;2023-08-24T03:15:34;4.57;;;4.07;;
15946;SDS011;8072;52.554;7.966;2023-08-24T03:18:00;6.70;;;4.00;;
15946;SDS011;8072;52.554;7.966;2023-08-24T03:20:26;5.50;;;4.17;;
15946;SDS011;8072;52.554;7.966;2023-08-24T03:22:52;6.23;;;4.40;;
15946;SDS011;8072;52.554;7.966;2023-08-24T03:25:18;5.03;;;4.13;;
15946;SDS011;8072;52.554;7.966;2023-08-24T03:27:43;5.70;;;3.63;;
15946;SDS011;8072;52.554;7.966;2023-08-24T03:30:09;6.87;;;4.40;;
15946;SDS011;8072;52.554;7.966;2023-08-24T03:32:35;5.27;;;4.50;;
15946;SDS011;8072;52.554;7.966;2023-08-24T03:35:01;6.43;;;3.90;;
15946;SDS011;8072;52.554;7.966;2023-08-24T03:37:35;8.00;;;4.70;;
15946;SDS011;8072;52.554;7.966;2023-08-24T03:40:01;5.87;;;3.80;;
15946;SDS011;8072;52.554;7.966;2023-08-24T03:42:29;8.10;;;4.80;;
15946;SDS011;8072;52.554;7.966;2023-08-24T03:44:55;6.83;;;4.77;;
15946;SDS011;8072;52.554;7.966;2023-08-24T03:47:27;8.80;;;5.03;;
15946;SDS011;8072;52.554;7.966;2023-08-24T03:49:53;6.93;;;5.07;;
15946;SDS011;8072;52.554;7.966;2023-08-24T03:52:20;5.82;;;4.50;;
15946;SDS011;8072;52.554;7.966;2023-08-24T03:54:46;7.27;;;5.10;;
15946;SDS011;8072;52.554;7.966;2023-08-24T03:57:12;7.93;;;5.70;;
15946;SDS011;8072;52.554;7.966;2023-08-24T03:59:37;9.80;;;6.63;;
15946;SDS011;8072;52.554;7.966;2023-08-24T04:02:03;7.00;;;5.63;;
15946;SDS011;8072;52.554;7.966;2023-08-24T04:04:32;11.47;;;5.97;;
15946;SDS011;8072;52.554;7.966;2023-08-24T04:06:58;8.27;;;5.30;;
15946;SDS011;8072;52.554;7.966;2023-08-24T04:09:24;7.53;;;4.80;;
15946;SDS011;8072;52.554;7.966;2023-08-24T04:11:49;13.32;;;5.78;;
15946;SDS011;8072;52.554;7.966;2023-08-24T04:14:15;17.23;;;5.83;;
15946;SDS011;8072;52.554;7.966;2023-08-24T04:16:41;14.53;;;6.43;;
15946;SDS011;8072;52.554;7.966;2023-08-24T04:19:07;9.30;;;6.40;;
15946;SDS011;8072;52.554;7.966;2023-08-24T04:21:33;8.30;;;5.90;;
15946;SDS011;8072;52.554;7.966;2023-08-24T04:23:59;8.40;;;6.13;;
15946;SDS011;8072;52.554;7.966;2023-08-24T04:26:25;8.07;;;6.47;;
15946;SDS011;8072;52.554;7.966;2023-08-24T04:28:51;7.40;;;6.60;;
15946;SDS011;8072;52.554;7.966;2023-08-24T04:31:16;11.73;;;7.87;;
15946;SDS011;8072;52.554;7.966;2023-08-24T04:33:42;13.70;;;7.50;;
15946;SDS011;8072;52.554;7.966;2023-08-24T04:36:08;10.03;;;7.13;;
15946;SDS011;8072;52.554;7.966;2023-08-24T04:38:34;10.47;;;6.70;;
15946;SDS011;8072;52.554;7.966;2023-08-24T04:40:59;10.65;;;6.95;;
15946;SDS011;8072;52.554;7.966;2023-08-24T04:43:25;10.83;;;7.60;;
15946;SDS011;8072;52.554;7.966;2023-08-24T04:45:52;14.43;;;9.13;;
15946;SDS011;8072;52.554;7.966;2023-08-24T04:48:19;13.87;;;8.40;;
15946;SDS011;8072;52.554;7.966;2023-08-24T04:50:46;13.77;;;9.40;;
15946;SDS011;8072;52.554;7.966;2023-08-24T04:53:14;18.87;;;10.20;;
15946;SDS011;8072;52.554;7.966;2023-08-24T04:55:44;11.13;;;7.93;;
15946;SDS011;8072;52.554;7.966;2023-08-24T04:58:11;15.20;;;9.30;;
15946;SDS011;8072;52.554;7.966;2023-08-24T05:00:38;12.13;;;7.67;;
15946;SDS011;8072;52.554;7.966;2023-08-24T05:03:05;10.27;;;7.73;;
15946;SDS011;8072;52.554;7.966;2023-08-24T05:05:31;11.77;;;8.50;;
15946;SDS011;8072;52.554;7.966;2023-08-24T05:07:58;14.00;;;9.00;;
15946;SDS011;8072;52.554;7.966;2023-08-24T05:10:25;17.27;;;9.57;;
15946;SDS011;8072;52.554;7.966;2023-08-24T05:12:54;13.27;;;8.80;;
15946;SDS011;8072;52.554;7.966;2023-08-24T05:15:20;14.73;;;9.70;;
15946;SDS011;8072;52.554;7.966;2023-08-24T05:17:49;12.50;;;9.27;;
15946;SDS011;8072;52.554;7.966;2023-08-24T05:20:16;10.37;;;8.30;;
15946;SDS011;8072;52.554;7.966;2023-08-24T05:22:42;15.27;;;9.47;;
15946;SDS011;8072;52.554;7.966;2023-08-24T05:25:07;12.48;;;8.93;;
15946;SDS011;8072;52.554;7.966;2023-08-24T05:27:33;16.43;;;8.47;;
15946;SDS011;8072;52.554;7.966;2023-08-24T05:30:00;15.23;;;8.20;;
15946;SDS011;8072;52.554;7.966;2023-08-24T05:32:26;11.50;;;8.27;;
15946;SDS011;8072;52.554;7.966;2023-08-24T05:34:52;11.93;;;8.63;;
15946;SDS011;8072;52.554;7.966;2023-08-24T05:37:18;13.63;;;8.77;;
15946;SDS011;8072;52.554;7.966;2023-08-24T05:39:43;16.40;;;8.40;;
15946;SDS011;8072;52.554;7.966;2023-08-24T05:42:09;14.93;;;9.20;;
15946;SDS011;8072;52.554;7.966;2023-08-24T05:44:35;12.73;;;7.97;;
15946;SDS011;8072;52.554;7.966;2023-08-24T05:47:01;10.23;;;8.10;;
15946;SDS011;8072;52.554;7.966;2023-08-24T05:49:26;14.63;;;9.03;;
15946;SDS011;8072;52.554;7.966;2023-08-24T05:51:53;15.97;;;9.27;;
15946;SDS011;8072;52.554;7.966;2023-08-24T05:54:19;13.63;;;10.03;;
15946;SDS011;8072;52.554;7.966;2023-08-24T05:56:45;16.37;;;9.93;;
15946;SDS011;8072;52.554;7.966;2023-08-24T05:59:11;13.93;;;9.20;;
15946;SDS011;8072;52.554;7.966;2023-08-24T06:01:37;14.63;;;9.80;;
15946;SDS011;8072;52.554;7.966;2023-08-24T06:04:10;14.53;;;9.00;;
15946;SDS011;8072;52.554;7.966;2023-08-24T06:06:36;18.33;;;10.07;;
15946;SDS011;8072;52.554;7.966;2023-08-24T06:09:02;15.43;;;9.80;;
15946;SDS011;8072;52.554;7.966;2023-08-24T06:11:32;20.07;;;11.60;;
15946;SDS011;8072;52.554;7.966;2023-08-24T06:13:58;16.40;;;11.53;;
15946;SDS011;8072;52.554;7.966;2023-08-24T06:16:24;17.70;;;11.50;;
15946;SDS011;8072;52.554;7.966;2023-08-24T06:18:49;16.67;;;11.30;;
15946;SDS011;8072;52.554;7.966;2023-08-24T06:21:16;19.20;;;12.73;;
15946;SDS011;8072;52.554;7.966;2023-08-24T06:23:42;21.40;;;12.87;;
15946;SDS011;8072;52.554;7.966;2023-08-24T06:26:09;21.05;;;12.80;;
15946;SDS011;8072;52.554;7.966;2023-08-24T06:28:34;23.47;;;14.40;;
15946;SDS011;8072;52.554;7.966;2023-08-24T06:31:00;21.17;;;15.38;;
15946;SDS011;8072;52.554;7.966;2023-08-24T06:33:33;24.58;;;15.18;;
15946;SDS011;8072;52.554;7.966;2023-08-24T06:35:59;24.15;;;16.17;;
15946;SDS011;8072;52.554;7.966;2023-08-24T06:38:25;22.98;;;15.73;;
15946;SDS011;8072;52.554;7.966;2023-08-24T06:40:51;24.90;;;14.60;;
15946;SDS011;8072;52.554;7.966;2023-08-24T06:43:17;22.30;;;15.07;;
15946;SDS011;8072;52.554;7.966;2023-08-24T06:45:46;25.33;;;15.70;;
15946;SDS011;8072;52.554;7.966;2023-08-24T06:48:12;25.27;;;15.98;;
15946;SDS011;8072;52.554;7.966;2023-08-24T06:50:37;19.15;;;13.27;;
15946;SDS011;8072;52.554;7.966;2023-08-24T06:53:04;21.98;;;13.77;;
15946;SDS011;8072;52.554;7.966;2023-08-24T06:55:29;20.17;;;14.18;;
15946;SDS011;8072;52.554;7.966;2023-08-24T06:57:55;25.08;;;14.63;;
15946;SDS011;8072;52.554;7.966;2023-08-24T07:00:21;24.60;;;15.18;;
15946;SDS011;8072;52.554;7.966;2023-08-24T07:02:48;24.83;;;14.13;;
15946;SDS011;8072;52.554;7.966;2023-08-24T07:05:15;21.70;;;14.70;;
15946;SDS011;8072;52.554;7.966;2023-08-24T07:07:46;19.92;;;13.68;;
15946;SDS011;8072;52.554;7.966;2023-08-24T07:10:14;22.73;;;14.05;;
15946;SDS011;8072;52.554;7.966;2023-08-24T07:12:40;20.30;;;13.18;;
15946;SDS011;8072;52.554;7.966;2023-08-24T07:15:06;20.67;;;13.23;;
15946;SDS011;8072;52.554;7.966;2023-08-24T07:17:33;19.52;;;13.98;;
15946;SDS011;8072;52.554;7.966;2023-08-24T07:20:00;16.45;;;12.05;;
15946;SDS011;8072;52.554;7.966;2023-08-24T07:22:25;21.08;;;13.68;;
15946;SDS011;8072;52.554;7.966;2023-08-24T07:24:54;17.77;;;11.88;;
15946;SDS011;8072;52.554;7.966;2023-08-24T07:27:20;17.70;;;11.70;;
15946;SDS011;8072;52.554;7.966;2023-08-24T07:29:46;19.27;;;13.18;;
15946;SDS011;8072;52.554;7.966;2023-08-24T07:32:12;19.85;;;11.52;;
15946;SDS011;8072;52.554;7.966;2023-08-24T07:34:37;18.23;;;11.30;;
15946;SDS011;8072;52.554;7.966;2023-08-24T07:37:03;15.73;;;11.30;;
15946;SDS011;8072;52.554;7.966;2023-08-24T07:39:29;15.98;;;10.65;;
15946;SDS011;8072;52.554;7.966;2023-08-24T07:41:55;22.33;;;11.73;;
15946;SDS011;8072;52.554;7.966;2023-08-24T07:44:21;18.63;;;10.27;;
15946;SDS011;8072;52.554;7.966;2023-08-24T07:46:47;12.48;;;10.07;;
15946;SDS011;8072;52.554;7.966;2023-08-24T07:49:13;12.38;;;9.20;;
15946;SDS011;8072;52.554;7.966;2023-08-24T07:51:38;11.10;;;7.90;;
15946;SDS011;8072;52.554;7.966;2023-08-24T07:54:04;13.52;;;8.73;;
15946;SDS011;8072;52.554;7.966;2023-08-24T07:56:32;11.50;;;7.78;;
15946;SDS011;8072;52.554;7.966;2023-08-24T07:58:58;10.00;;;7.30;;
15946;SDS011;8072;52.554;7.966;2023-08-24T08:01:23;13.27;;;7.85;;
15946;SDS011;8072;52.554;7.966;2023-08-24T08:03:49;13.27;;;7.40;;
15946;SDS011;8072;52.554;7.966;2023-08-24T08:06:15;9.63;;;7.22;;
15946;SDS011;8072;52.554;7.966;2023-08-24T08:08:41;12.73;;;6.95;;
15946;SDS011;8072;52.554;7.966;2023-08-24T08:11:07;8.85;;;7.57;;
15946;SDS011;8072;52.554;7.966;2023-08-24T08:13:32;9.10;;;6.30;;
15946;SDS011;8072;52.554;7.966;2023-08-24T08:16:02;12.52;;;7.30;;
15946;SDS011;8072;52.554;7.966;2023-08-24T08:18:28;12.07;;;6.70;;
15946;SDS011;8072;52.554;7.966;2023-08-24T08:20:55;12.30;;;7.18;;
15946;SDS011;8072;52.554;7.966;2023-08-24T08:23:20;8.18;;;6.72;;
15946;SDS011;8072;52.554;7.966;2023-08-24T08:25:46;13.68;;;7.35;;
15946;SDS011;8072;52.554;7.966;2023-08-24T08:28:12;11.10;;;7.55;;
15946;SDS011;8072;52.554;7.966;2023-08-24T08:30:37;10.95;;;7.80;;
15946;SDS011;8072;52.554;7.966;2023-08-24T08:33:03;10.25;;;7.40;;
15946;SDS011;8072;52.554;7.966;2023-08-24T08:35:29;10.48;;;6.43;;
15946;SDS011;8072;52.554;7.966;2023-08-24T08:37:55;8.90;;;7.60;;
15946;SDS011;8072;52.554;7.966;2023-08-24T08:40:21;13.00;;;7.18;;
15946;SDS011;8072;52.554;7.966;2023-08-24T08:42:55;13.00;;;7.55;;
15946;SDS011;8072;52.554;7.966;2023-08-24T08:45:24;9.45;;;7.45;;
15946;SDS011;8072;52.554;7.966;2023-08-24T08:47:51;9.40;;;7.47;;
15946;SDS011;8072;52.554;7.966;2023-08-24T08:50:21;11.20;;;7.55;;
15946;SDS011;8072;52.554;7.966;2023-08-24T08:52:47;14.57;;;8.27;;
15946;SDS011;8072;52.554;7.966;2023-08-24T08:55:12;8.75;;;6.47;;
15946;SDS011;8072;52.554;7.966;2023-08-24T08:57:40;10.75;;;7.18;;
15946;SDS011;8072;52.554;7.966;2023-08-24T09:00:08;10.98;;;7.07;;
15946;SDS011;8072;52.554;7.966;2023-08-24T09:02:38;8.82;;;6.40;;
15946;SDS011;8072;52.554;7.966;2023-08-24T09:05:07;13.63;;;7.60;;
15946;SDS011;8072;52.554;7.966;2023-08-24T09:07:34;10.15;;;7.13;;
15946;SDS011;8072;52.554;7.966;2023-08-24T09:10:01;11.00;;;7.63;;
15946;SDS011;8072;52.554;7.966;2023-08-24T09:12:30;14.00;;;8.07;;
15946;SDS011;8072;52.554;7.966;2023-08-24T09:14:59;10.35;;;6.70;;
15946;SDS011;8072;52.554;7.966;2023-08-24T09:17:25;10.82;;;6.88;;
15946;SDS011;8072;52.554;7.966;2023-08-24T09:19:53;10.32;;;7.50;;
15946;SDS011;8072;52.554;7.966;2023-08-24T09:22:22;10.70;;;6.35;;
15946;SDS011;8072;52.554;7.966;2023-08-24T09:24:48;11.27;;;6.90;;
15946;SDS011;8072;52.554;7.966;2023-08-24T09:27:18;12.48;;;7.10;;
15946;SDS011;8072;52.554;7.966;2023-08-24T09:29:51;9.55;;;6.50;;
15946;SDS011;8072;52.554;7.966;2023-08-24T09:32:23;10.30;;;7.28;;
15946;SDS011;8072;52.554;7.966;2023-08-24T09:34:52;7.15;;;5.00;;
15946;SDS011;8072;52.554;7.966;2023-08-24T09:37:18;8.50;;;5.70;;
15946;SDS011;8072;52.554;7.966;2023-08-24T09:39:45;7.82;;;5.35;;
15946;SDS011;8072;52.554;7.966;2023-08-24T09:42:11;7.78;;;5.88;;
15946;SDS011;8072;52.554;7.966;2023-08-24T09:44:38;8.02;;;6.70;;
15946;SDS011;8072;52.554;7.966;2023-08-24T09:47:11;8.38;;;6.22;;
15946;SDS011;8072;52.554;7.966;2023-08-24T09:49:37;6.28;;;4.82;;
15946;SDS011;8072;52.554;7.966;2023-08-24T09:52:06;8.15;;;6.13;;
15946;SDS011;8072;52.554;7.966;2023-08-24T09:54:33;12.05;;;6.05;;
15946;SDS011;8072;52.554;7.966;2023-08-24T09:57:02;11.30;;;7.32;;
15946;SDS011;8072;52.554;7.966;2023-08-24T09:59:29;11.18;;;6.43;;
15946;SDS011;8072;52.554;7.966;2023-08-24T10:01:57;8.73;;;6.50;;
15946;SDS011;8072;52.554;7.966;2023-08-24T10:04:28;11.43;;;8.30;;
15946;SDS011;8072;52.554;7.966;2023-08-24T10:07:06;12.18;;;7.60;;
15946;SDS011;8072;52.554;7.966;2023-08-24T10:09:48;10.55;;;7.88;;
15946;SDS011;8072;52.554;7.966;2023-08-24T10:12:23;14.38;;;8.02;;
15946;SDS011;8072;52.554;7.966;2023-08-24T10:15:01;9.98;;;6.25;;
15946;SDS011;8072;52.554;7.966;2023-08-24T10:17:29;10.23;;;6.43;;
15946;SDS011;8072;52.554;7.966;2023-08-24T10:20:00;10.60;;;8.05;;
15946;SDS011;8072;52.554;7.966;2023-08-24T10:22:29;10.90;;;7.45;;
15946;SDS011;8072;52.554;7.966;2023-08-24T10:24:56;9.02;;;6.95;;
15946;SDS011;8072;52.554;7.966;2023-08-24T10:27:23;8.20;;;5.78;;
15946;SDS011;8072;52.554;7.966;2023-08-24T10:29:49;7.97;;;5.30;;
15946;SDS011;8072;52.554;7.966;2023-08-24T10:32:15;9.20;;;6.00;;
15946;SDS011;8072;52.554;7.966;2023-08-24T10:34:41;8.85;;;5.75;;
15946;SDS011;8072;52.554;7.966;2023-08-24T10:37:08;9.35;;;6.88;;
15946;SDS011;8072;52.554;7.966;2023-08-24T10:39:38;10.90;;;6.38;;
15946;SDS011;8072;52.554;7.966;2023-08-24T10:42:11;9.35;;;6.45;;
15946;SDS011;8072;52.554;7.966;2023-08-24T10:44:38;10.00;;;6.10;;
15946;SDS011;8072;52.554;7.966;2023-08-24T10:49:43;7.18;;;4.50;;
15946;SDS011;8072;52.554;7.966;2023-08-24T10:54:51;7.65;;;5.00;;
15946;SDS011;8072;52.554;7.966;2023-08-24T10:57:18;8.35;;;4.90;;
15946;SDS011;8072;52.554;7.966;2023-08-24T10:59:56;8.65;;;5.57;;
15946;SDS011;8072;52.554;7.966;2023-08-24T11:02:24;6.30;;;4.65;;
15946;SDS011;8072;52.554;7.966;2023-08-24T11:05:03;7.07;;;4.28;;
15946;SDS011;8072;52.554;7.966;2023-08-24T11:07:32;6.45;;;4.28;;
15946;SDS011;8072;52.554;7.966;2023-08-24T11:09:58;9.88;;;4.18;;
15946;SDS011;8072;52.554;7.966;2023-08-24T11:12:24;5.82;;;4.63;;
15946;SDS011;8072;52.554;7.966;2023-08-24T11:14:50;8.15;;;4.22;;
15946;SDS011;8072;52.554;7.966;2023-08-24T11:17:22;6.55;;;3.72;;
15946;SDS011;8072;52.554;7.966;2023-08-24T11:19:48;7.75;;;3.55;;
15946;SDS011;8072;52.554;7.966;2023-08-24T11:22:18;6.65;;;4.03;;
15946;SDS011;8072;52.554;7.966;2023-08-24T11:24:45;5.80;;;4.20;;
15946;SDS011;8072;52.554;7.966;2023-08-24T11:27:10;7.30;;;3.90;;
15946;SDS011;8072;52.554;7.966;2023-08-24T11:29:36;6.88;;;3.75;;
15946;SDS011;8072;52.554;7.966;2023-08-24T11:32:02;5.43;;;3.63;;
15946;SDS011;8072;52.554;7.966;2023-08-24T11:34:29;6.75;;;3.95;;
15946;SDS011;8072;52.554;7.966;2023-08-24T11:36:55;7.22;;;3.85;;
15946;SDS011;8072;52.554;7.966;2023-08-24T11:39:22;5.18;;;3.90;;
15946;SDS011;8072;52.554;7.966;2023-08-24T11:41:56;6.60;;;3.92;;
15946;SDS011;8072;52.554;7.966;2023-08-24T11:44:26;7.97;;;4.10;;
15946;SDS011;8072;52.554;7.966;2023-08-24T11:46:52;6.03;;;3.20;;
15946;SDS011;8072;52.554;7.966;2023-08-24T11:49:20;5.40;;;3.80;;
15946;SDS011;8072;52.554;7.966;2023-08-24T11:51:47;11.25;;;4.07;;
15946;SDS011;8072;52.554;7.966;2023-08-24T11:54:16;9.57;;;3.30;;
15946;SDS011;8072;52.554;7.966;2023-08-24T11:56:44;7.63;;;3.47;;
15946;SDS011;8072;52.554;7.966;2023-08-24T11:59:12;5.22;;;2.97;;
15946;SDS011;8072;52.554;7.966;2023-08-24T12:01:39;10.10;;;4.22;;
15946;SDS011;8072;52.554;7.966;2023-08-24T12:04:06;7.30;;;3.65;;
15946;SDS011;8072;52.554;7.966;2023-08-24T12:06:32;5.13;;;3.85;;
15946;SDS011;8072;52.554;7.966;2023-08-24T12:08:59;5.80;;;3.95;;
15946;SDS011;8072;52.554;7.966;2023-08-24T12:11:26;8.57;;;3.95;;
15946;SDS011;8072;52.554;7.966;2023-08-24T12:13:52;5.63;;;3.45;;
15946;SDS011;8072;52.554;7.966;2023-08-24T12:16:20;5.32;;;3.30;;
15946;SDS011;8072;52.554;7.966;2023-08-24T12:18:54;3.95;;;2.85;;
15946;SDS011;8072;52.554;7.966;2023-08-24T12:21:24;6.60;;;3.40;;
15946;SDS011;8072;52.554;7.966;2023-08-24T12:26:28;6.72;;;3.83;;
15946;SDS011;8072;52.554;7.966;2023-08-24T12:28:55;5.60;;;3.35;;
15946;SDS011;8072;52.554;7.966;2023-08-24T12:31:26;4.93;;;3.15;;
15946;SDS011;8072;52.554;7.966;2023-08-24T12:34:05;4.38;;;2.80;;
15946;SDS011;8072;52.554;7.966;2023-08-24T12:36:32;4.22;;;2.90;;
15946;SDS011;8072;52.554;7.966;2023-08-24T12:39:01;4.05;;;2.92;;
15946;SDS011;8072;52.554;7.966;2023-08-24T12:41:28;5.97;;;3.58;;
15946;SDS011;8072;52.554;7.966;2023-08-24T12:43:54;4.75;;;3.60;;
15946;SDS011;8072;52.554;7.966;2023-08-24T12:46:21;3.92;;;3.15;;
15946;SDS011;8072;52.554;7.966;2023-08-24T12:48:47;6.55;;;3.65;;
15946;SDS011;8072;52.554;7.966;2023-08-24T12:51:13;8.30;;;3.28;;
15946;SDS011;8072;52.554;7.966;2023-08-24T12:53:41;8.07;;;3.80;;
15946;SDS011;8072;52.554;7.966;2023-08-24T12:56:08;7.05;;;3.05;;
15946;SDS011;8072;52.554;7.966;2023-08-24T12:58:33;5.03;;;3.22;;
15946;SDS011;8072;52.554;7.966;2023-08-24T13:01:00;9.18;;;3.78;;
15946;SDS011;8072;52.554;7.966;2023-08-24T13:03:26;8.68;;;3.80;;
15946;SDS011;8072;52.554;7.966;2023-08-24T13:05:53;7.32;;;3.70;;
15946;SDS011;8072;52.554;7.966;2023-08-24T13:08:18;6.03;;;3.28;;
15946;SDS011;8072;52.554;7.966;2023-08-24T13:10:44;8.02;;;3.55;;
15946;SDS011;8072;52.554;7.966;2023-08-24T13:13:10;6.57;;;3.40;;
15946;SDS011;8072;52.554;7.966;2023-08-24T13:15:35;5.50;;;3.45;;
15946;SDS011;8072;52.554;7.966;2023-08-24T13:18:01;6.82;;;3.17;;
15946;SDS011;8072;52.554;7.966;2023-08-24T13:20:27;5.10;;;3.88;;
15946;SDS011;8072;52.554;7.966;2023-08-24T13:22:53;5.35;;;3.17;;
15946;SDS011;8072;52.554;7.966;2023-08-24T13:25:19;5.25;;;3.25;;
15946;SDS011;8072;52.554;7.966;2023-08-24T13:27:45;4.80;;;3.10;;
15946;SDS011;8072;52.554;7.966;2023-08-24T13:30:11;6.13;;;3.05;;
15946;SDS011;8072;52.554;7.966;2023-08-24T13:32:37;3.22;;;2.63;;
15946;SDS011;8072;52.554;7.966;2023-08-24T13:35:04;7.38;;;3.13;;
15946;SDS011;8072;52.554;7.966;2023-08-24T13:37:30;7.47;;;3.05;;
15946;SDS011;8072;52.554;7.966;2023-08-24T13:39:57;6.07;;;2.95;;
15946;SDS011;8072;52.554;7.966;2023-08-24T13:42:24;8.23;;;3.20;;
15946;SDS011;8072;52.554;7.966;2023-08-24T13:44:50;3.47;;;2.92;;
15946;SDS011;8072;52.554;7.966;2023-08-24T13:47:16;8.00;;;3.05;;
15946;SDS011;8072;52.554;7.966;2023-08-24T13:49:41;4.13;;;3.22;;
15946;SDS011;8072;52.554;7.966;2023-08-24T13:52:07;6.32;;;3.55;;
15946;SDS011;8072;52.554;7.966;2023-08-24T13:54:33;7.28;;;3.95;;
15946;SDS011;8072;52.554;7.966;2023-08-24T13:57:00;5.32;;;4.05;;
15946;SDS011;8072;52.554;7.966;2023-08-24T13:59:27;6.78;;;3.65;;
15946;SDS011;8072;52.554;7.966;2023-08-24T14:01:53;4.47;;;3.38;;
15946;SDS011;8072;52.554;7.966;2023-08-24T14:04:19;7.28;;;3.60;;
15946;SDS011;8072;52.554;7.966;2023-08-24T14:06:45;4.75;;;3.90;;
15946;SDS011;8072;52.554;7.966;2023-08-24T14:09:13;7.47;;;3.90;;
15946;SDS011;8072;52.554;7.966;2023-08-24T14:11:39;5.18;;;4.25;;
15946;SDS011;8072;52.554;7.966;2023-08-24T14:14:04;6.15;;;4.22;;
15946;SDS011;8072;52.554;7.966;2023-08-24T14:16:30;4.50;;;3.75;;
15946;SDS011;8072;52.554;7.966;2023-08-24T14:18:56;7.05;;;4.10;;
15946;SDS011;8072;52.554;7.966;2023-08-24T14:21:22;6.93;;;4.22;;
15946;SDS011;8072;52.554;7.966;2023-08-24T14:23:50;6.05;;;4.32;;
15946;SDS011;8072;52.554;7.966;2023-08-24T14:26:17;6.22;;;3.67;;
15946;SDS011;8072;52.554;7.966;2023-08-24T14:28:55;6.68;;;3.92;;
15946;SDS011;8072;52.554;7.966;2023-08-24T14:31:26;5.55;;;3.78;;
15946;SDS011;8072;52.554;7.966;2023-08-24T14:33:54;5.38;;;4.50;;
15946;SDS011;8072;52.554;7.966;2023-08-24T14:36:21;6.93;;;4.13;;
15946;SDS011;8072;52.554;7.966;2023-08-24T14:38:48;6.82;;;4.28;;
15946;SDS011;8072;52.554;7.966;2023-08-24T14:41:15;6.05;;;4.45;;
15946;SDS011;8072;52.554;7.966;2023-08-24T14:43:41;6.07;;;4.07;;
15946;SDS011;8072;52.554;7.966;2023-08-24T14:46:07;9.18;;;4.28;;
15946;SDS011;8072;52.554;7.966;2023-08-24T14:48:33;5.97;;;4.10;;
15946;SDS011;8072;52.554;7.966;2023-08-24T14:50:59;4.88;;;3.72;;
15946;SDS011;8072;52.554;7.966;2023-08-24T14:53:26;6.32;;;4.03;;
15946;SDS011;8072;52.554;7.966;2023-08-24T14:55:52;5.20;;;3.58;;
15946;SDS011;8072;52.554;7.966;2023-08-24T14:58:22;6.60;;;3.60;;
15946;SDS011;8072;52.554;7.966;2023-08-24T15:00:50;6.50;;;4.18;;
15946;SDS011;8072;52.554;7.966;2023-08-24T15:03:17;7.18;;;4.43;;
15946;SDS011;8072;52.554;7.966;2023-08-24T15:05:44;7.95;;;4.30;;
15946;SDS011;8072;52.554;7.966;2023-08-24T15:08:11;6.50;;;3.88;;
15946;SDS011;8072;52.554;7.966;2023-08-24T15:10:38;4.45;;;4.05;;